sensor_id;sensor_type;location;lat;lon;timestamp;P1;durP1;ratioP1;P2;durP2;ratioP2
17504;SDS011;8870;50.950;11.762;2022-08-03T00:02:45;1.00;;;0.40;;
17504;SDS011;8870;50.950;11.762;2022-08-03T00:07:52;0.68;;;0.50;;
17504;SDS011;8870;50.950;11.762;2022-08-03T00:12:57;0.93;;;0.55;;
17504;SDS011;8870;50.950;11.762;2022-08-03T00:18:02;1.30;;;0.40;;
17504;SDS011;8870;50.950;11.762;2022-08-03T00:23:11;1.10;;;0.50;;
17504;SDS011;8870;50.950;11.762;2022-08-03T00:28:16;1.33;;;0.50;;
17504;SDS011;8870;50.950;11.762;2022-08-03T00:33:21;1.73;;;0.50;;
17504;SDS011;8870;50.950;11.762;2022-08-03T00:38:31;2.28;;;0.70;;
17504;SDS011;8870;50.950;11.762;2022-08-03T00:43:37;2.78;;;0.43;;
17504;SDS011;8870;50.950;11.762;2022-08-03T00:48:41;1.92;;;0.60;;
17504;SDS011;8870;50.950;11.762;2022-08-03T00:53:49;2.22;;;0.40;;
17504;SDS011;8870;50.950;11.762;2022-08-03T00:58:55;2.72;;;0.60;;
17504;SDS011;8870;50.950;11.762;2022-08-03T01:04:02;3.10;;;0.60;;
17504;SDS011;8870;50.950;11.762;2022-08-03T01:09:11;2.45;;;0.65;;
17504;SDS011;8870;50.950;11.762;2022-08-03T01:14:24;3.13;;;0.50;;
17504;SDS011;8870;50.950;11.762;2022-08-03T01:19:41;2.13;;;0.70;;
17504;SDS011;8870;50.950;11.762;2022-08-03T01:24:55;1.05;;;0.50;;
17504;SDS011;8870;50.950;11.762;2022-08-03T01:30:09;0.40;;;0.40;;
17504;SDS011;8870;50.950;11.762;2022-08-03T01:35:18;2.75;;;0.60;;
17504;SDS011;8870;50.950;11.762;2022-08-03T01:40:39;1.33;;;0.60;;
17504;SDS011;8870;50.950;11.762;2022-08-03T01:45:48;0.75;;;0.40;;
17504;SDS011;8870;50.950;11.762;2022-08-03T01:50:56;1.90;;;0.50;;
17504;SDS011;8870;50.950;11.762;2022-08-03T01:56:03;1.15;;;0.50;;
17504;SDS011;8870;50.950;11.762;2022-08-03T02:01:12;1.40;;;0.50;;
17504;SDS011;8870;50.950;11.762;2022-08-03T02:06:20;1.05;;;0.47;;
17504;SDS011;8870;50.950;11.762;2022-08-03T02:11:46;1.48;;;0.45;;
17504;SDS011;8870;50.950;11.762;2022-08-03T02:16:55;1.35;;;0.50;;
17504;SDS011;8870;50.950;11.762;2022-08-03T02:22:01;2.25;;;0.50;;
17504;SDS011;8870;50.950;11.762;2022-08-03T02:27:20;1.55;;;0.47;;
17504;SDS011;8870;50.950;11.762;2022-08-03T02:32:31;3.63;;;0.65;;
17504;SDS011;8870;50.950;11.762;2022-08-03T02:37:40;0.75;;;0.55;;
17504;SDS011;8870;50.950;11.762;2022-08-03T02:42:50;1.30;;;0.60;;
17504;SDS011;8870;50.950;11.762;2022-08-03T02:48:02;3.25;;;0.60;;
17504;SDS011;8870;50.950;11.762;2022-08-03T02:53:09;0.85;;;0.60;;
17504;SDS011;8870;50.950;11.762;2022-08-03T02:58:16;1.55;;;0.60;;
17504;SDS011;8870;50.950;11.762;2022-08-03T03:03:25;3.05;;;0.60;;
17504;SDS011;8870;50.950;11.762;2022-08-03T03:08:45;1.65;;;0.40;;
17504;SDS011;8870;50.950;11.762;2022-08-03T03:13:52;3.00;;;0.65;;
17504;SDS011;8870;50.950;11.762;2022-08-03T03:19:01;1.10;;;0.60;;
17504;SDS011;8870;50.950;11.762;2022-08-03T03:24:07;0.77;;;0.40;;
17504;SDS011;8870;50.950;11.762;2022-08-03T03:29:13;3.78;;;0.60;;
17504;SDS011;8870;50.950;11.762;2022-08-03T03:34:21;2.70;;;0.70;;
17504;SDS011;8870;50.950;11.762;2022-08-03T03:39:29;1.15;;;0.47;;
17504;SDS011;8870;50.950;11.762;2022-08-03T03:44:34;2.90;;;0.65;;
17504;SDS011;8870;50.950;11.762;2022-08-03T03:49:41;0.60;;;0.50;;
17504;SDS011;8870;50.950;11.762;2022-08-03T03:54:48;0.85;;;0.40;;
17504;SDS011;8870;50.950;11.762;2022-08-03T03:59:59;2.33;;;0.70;;
17504;SDS011;8870;50.950;11.762;2022-08-03T04:05:08;0.73;;;0.50;;
17504;SDS011;8870;50.950;11.762;2022-08-03T04:10:26;0.90;;;0.50;;
17504;SDS011;8870;50.950;11.762;2022-08-03T04:15:45;1.65;;;0.50;;
17504;SDS011;8870;50.950;11.762;2022-08-03T04:20:53;0.93;;;0.60;;
17504;SDS011;8870;50.950;11.762;2022-08-03T04:26:00;2.60;;;0.60;;
17504;SDS011;8870;50.950;11.762;2022-08-03T04:31:07;2.10;;;0.70;;
17504;SDS011;8870;50.950;11.762;2022-08-03T04:36:16;1.80;;;0.52;;
17504;SDS011;8870;50.950;11.762;2022-08-03T04:41:24;2.25;;;0.60;;
17504;SDS011;8870;50.950;11.762;2022-08-03T04:46:31;1.05;;;0.70;;
17504;SDS011;8870;50.950;11.762;2022-08-03T04:51:53;1.15;;;0.50;;
17504;SDS011;8870;50.950;11.762;2022-08-03T04:56:58;2.55;;;0.60;;
17504;SDS011;8870;50.950;11.762;2022-08-03T05:02:04;0.50;;;0.50;;
17504;SDS011;8870;50.950;11.762;2022-08-03T05:07:13;2.10;;;0.60;;
17504;SDS011;8870;50.950;11.762;2022-08-03T05:12:25;1.20;;;0.70;;
17504;SDS011;8870;50.950;11.762;2022-08-03T05:17:33;1.90;;;0.57;;
17504;SDS011;8870;50.950;11.762;2022-08-03T05:22:43;1.63;;;0.57;;
17504;SDS011;8870;50.950;11.762;2022-08-03T05:27:49;1.35;;;0.65;;
17504;SDS011;8870;50.950;11.762;2022-08-03T05:32:54;6.78;;;0.70;;
17504;SDS011;8870;50.950;11.762;2022-08-03T05:38:03;0.50;;;0.47;;
17504;SDS011;8870;50.950;11.762;2022-08-03T05:43:09;0.77;;;0.52;;
17504;SDS011;8870;50.950;11.762;2022-08-03T05:48:14;0.55;;;0.40;;
17504;SDS011;8870;50.950;11.762;2022-08-03T05:53:22;1.95;;;0.60;;
17504;SDS011;8870;50.950;11.762;2022-08-03T05:58:27;3.05;;;0.60;;
17504;SDS011;8870;50.950;11.762;2022-08-03T06:03:33;1.80;;;0.75;;
17504;SDS011;8870;50.950;11.762;2022-08-03T06:08:41;2.05;;;0.65;;
17504;SDS011;8870;50.950;11.762;2022-08-03T06:13:49;1.23;;;0.60;;
17504;SDS011;8870;50.950;11.762;2022-08-03T06:18:54;1.08;;;0.50;;
17504;SDS011;8870;50.950;11.762;2022-08-03T06:24:02;4.07;;;0.73;;
17504;SDS011;8870;50.950;11.762;2022-08-03T06:29:08;0.95;;;0.43;;
17504;SDS011;8870;50.950;11.762;2022-08-03T06:34:13;0.68;;;0.60;;
17504;SDS011;8870;50.950;11.762;2022-08-03T06:39:37;2.33;;;0.70;;
17504;SDS011;8870;50.950;11.762;2022-08-03T06:44:48;2.15;;;0.60;;
17504;SDS011;8870;50.950;11.762;2022-08-03T06:49:53;1.20;;;0.60;;
17504;SDS011;8870;50.950;11.762;2022-08-03T06:55:20;1.15;;;0.70;;
17504;SDS011;8870;50.950;11.762;2022-08-03T07:00:25;3.88;;;0.70;;
17504;SDS011;8870;50.950;11.762;2022-08-03T07:05:31;1.52;;;0.80;;
17504;SDS011;8870;50.950;11.762;2022-08-03T07:10:39;2.22;;;0.80;;
17504;SDS011;8870;50.950;11.762;2022-08-03T07:15:44;2.53;;;0.70;;
17504;SDS011;8870;50.950;11.762;2022-08-03T07:20:56;2.28;;;0.90;;
17504;SDS011;8870;50.950;11.762;2022-08-03T07:26:04;3.08;;;0.70;;
17504;SDS011;8870;50.950;11.762;2022-08-03T07:31:09;4.20;;;0.60;;
17504;SDS011;8870;50.950;11.762;2022-08-03T07:36:14;5.55;;;0.70;;
17504;SDS011;8870;50.950;11.762;2022-08-03T07:41:21;5.57;;;0.90;;
17504;SDS011;8870;50.950;11.762;2022-08-03T07:46:26;4.93;;;0.60;;
17504;SDS011;8870;50.950;11.762;2022-08-03T07:51:31;0.93;;;0.60;;
17504;SDS011;8870;50.950;11.762;2022-08-03T07:56:39;4.45;;;0.70;;
17504;SDS011;8870;50.950;11.762;2022-08-03T08:01:44;2.65;;;0.80;;
17504;SDS011;8870;50.950;11.762;2022-08-03T08:06:49;3.03;;;0.52;;
17504;SDS011;8870;50.950;11.762;2022-08-03T08:11:56;1.20;;;0.60;;
17504;SDS011;8870;50.950;11.762;2022-08-03T08:17:01;1.95;;;0.60;;
17504;SDS011;8870;50.950;11.762;2022-08-03T08:22:08;2.60;;;0.60;;
17504;SDS011;8870;50.950;11.762;2022-08-03T08:27:18;2.83;;;0.57;;
17504;SDS011;8870;50.950;11.762;2022-08-03T08:32:23;3.40;;;0.70;;
17504;SDS011;8870;50.950;11.762;2022-08-03T08:37:28;3.40;;;0.40;;
17504;SDS011;8870;50.950;11.762;2022-08-03T08:42:38;1.65;;;0.50;;
17504;SDS011;8870;50.950;11.762;2022-08-03T08:47:59;2.75;;;0.50;;
17504;SDS011;8870;50.950;11.762;2022-08-03T08:53:09;0.80;;;0.43;;
17504;SDS011;8870;50.950;11.762;2022-08-03T08:58:23;2.55;;;0.57;;
17504;SDS011;8870;50.950;11.762;2022-08-03T09:03:32;2.53;;;0.50;;
17504;SDS011;8870;50.950;11.762;2022-08-03T09:08:37;1.55;;;0.50;;
17504;SDS011;8870;50.950;11.762;2022-08-03T09:13:45;3.13;;;0.38;;
17504;SDS011;8870;50.950;11.762;2022-08-03T09:18:50;0.70;;;0.32;;
17504;SDS011;8870;50.950;11.762;2022-08-03T09:29:44;1.45;;;0.50;;
17504;SDS011;8870;50.950;11.762;2022-08-03T09:34:51;2.90;;;0.40;;
17504;SDS011;8870;50.950;11.762;2022-08-03T09:39:58;1.27;;;0.50;;
17504;SDS011;8870;50.950;11.762;2022-08-03T09:45:06;1.33;;;0.35;;
17504;SDS011;8870;50.950;11.762;2022-08-03T09:50:46;1.05;;;0.38;;
17504;SDS011;8870;50.950;11.762;2022-08-03T09:56:12;2.03;;;0.40;;
17504;SDS011;8870;50.950;11.762;2022-08-03T10:01:39;2.30;;;0.50;;
17504;SDS011;8870;50.950;11.762;2022-08-03T10:07:00;3.75;;;0.60;;
17504;SDS011;8870;50.950;11.762;2022-08-03T10:12:07;1.03;;;0.43;;
17504;SDS011;8870;50.950;11.762;2022-08-03T10:17:17;2.95;;;0.60;;
17504;SDS011;8870;50.950;11.762;2022-08-03T10:22:23;1.27;;;0.30;;
17504;SDS011;8870;50.950;11.762;2022-08-03T10:27:31;1.95;;;0.50;;
17504;SDS011;8870;50.950;11.762;2022-08-03T10:32:42;2.03;;;0.40;;
17504;SDS011;8870;50.950;11.762;2022-08-03T10:37:51;1.05;;;0.40;;
17504;SDS011;8870;50.950;11.762;2022-08-03T10:43:02;0.50;;;0.30;;
17504;SDS011;8870;50.950;11.762;2022-08-03T10:48:13;0.57;;;0.30;;
17504;SDS011;8870;50.950;11.762;2022-08-03T10:53:32;0.50;;;0.30;;
17504;SDS011;8870;50.950;11.762;2022-08-03T10:58:45;1.48;;;0.30;;
17504;SDS011;8870;50.950;11.762;2022-08-03T11:09:21;2.28;;;0.35;;
17504;SDS011;8870;50.950;11.762;2022-08-03T11:14:26;2.58;;;0.35;;
17504;SDS011;8870;50.950;11.762;2022-08-03T11:19:44;1.65;;;0.50;;
17504;SDS011;8870;50.950;11.762;2022-08-03T11:24:58;0.85;;;0.30;;
17504;SDS011;8870;50.950;11.762;2022-08-03T11:30:08;1.70;;;0.32;;
17504;SDS011;8870;50.950;11.762;2022-08-03T11:35:18;2.15;;;0.40;;
17504;SDS011;8870;50.950;11.762;2022-08-03T11:40:31;1.13;;;0.30;;
17504;SDS011;8870;50.950;11.762;2022-08-03T11:45:37;0.88;;;0.40;;
17504;SDS011;8870;50.950;11.762;2022-08-03T11:51:02;0.82;;;0.40;;
17504;SDS011;8870;50.950;11.762;2022-08-03T11:56:08;0.70;;;0.35;;
17504;SDS011;8870;50.950;11.762;2022-08-03T12:01:13;2.15;;;0.40;;
17504;SDS011;8870;50.950;11.762;2022-08-03T12:06:26;0.88;;;0.38;;
17504;SDS011;8870;50.950;11.762;2022-08-03T12:11:31;0.93;;;0.30;;
17504;SDS011;8870;50.950;11.762;2022-08-03T12:16:36;3.35;;;0.32;;
17504;SDS011;8870;50.950;11.762;2022-08-03T12:21:47;0.45;;;0.30;;
17504;SDS011;8870;50.950;11.762;2022-08-03T12:26:57;3.80;;;0.40;;
17504;SDS011;8870;50.950;11.762;2022-08-03T12:32:03;1.13;;;0.40;;
17504;SDS011;8870;50.950;11.762;2022-08-03T12:37:10;0.73;;;0.30;;
17504;SDS011;8870;50.950;11.762;2022-08-03T12:42:28;0.55;;;0.30;;
17504;SDS011;8870;50.950;11.762;2022-08-03T12:47:48;4.32;;;0.40;;
17504;SDS011;8870;50.950;11.762;2022-08-03T12:52:56;2.17;;;0.30;;
17504;SDS011;8870;50.950;11.762;2022-08-03T12:58:02;0.77;;;0.30;;
17504;SDS011;8870;50.950;11.762;2022-08-03T13:03:08;2.25;;;0.40;;
17504;SDS011;8870;50.950;11.762;2022-08-03T13:08:35;3.55;;;0.43;;
17504;SDS011;8870;50.950;11.762;2022-08-03T13:13:40;1.85;;;0.30;;
17504;SDS011;8870;50.950;11.762;2022-08-03T13:18:46;1.15;;;0.35;;
17504;SDS011;8870;50.950;11.762;2022-08-03T13:23:55;0.80;;;0.30;;
17504;SDS011;8870;50.950;11.762;2022-08-03T13:29:00;0.50;;;0.30;;
17504;SDS011;8870;50.950;11.762;2022-08-03T13:34:05;1.58;;;0.17;;
17504;SDS011;8870;50.950;11.762;2022-08-03T13:39:12;0.73;;;0.30;;
17504;SDS011;8870;50.950;11.762;2022-08-03T13:44:20;0.98;;;0.32;;
17504;SDS011;8870;50.950;11.762;2022-08-03T13:54:37;1.15;;;0.38;;
17504;SDS011;8870;50.950;11.762;2022-08-03T13:59:46;1.92;;;0.40;;
17504;SDS011;8870;50.950;11.762;2022-08-03T14:04:51;1.05;;;0.30;;
17504;SDS011;8870;50.950;11.762;2022-08-03T14:10:00;3.58;;;0.47;;
17504;SDS011;8870;50.950;11.762;2022-08-03T14:15:06;0.95;;;0.40;;
17504;SDS011;8870;50.950;11.762;2022-08-03T14:20:13;1.02;;;0.30;;
17504;SDS011;8870;50.950;11.762;2022-08-03T14:25:41;0.88;;;0.28;;
17504;SDS011;8870;50.950;11.762;2022-08-03T14:30:53;0.88;;;0.30;;
17504;SDS011;8870;50.950;11.762;2022-08-03T14:35:59;3.92;;;0.30;;
17504;SDS011;8870;50.950;11.762;2022-08-03T14:41:06;0.70;;;0.20;;
17504;SDS011;8870;50.950;11.762;2022-08-03T14:46:20;1.92;;;0.30;;
17504;SDS011;8870;50.950;11.762;2022-08-03T14:51:25;0.50;;;0.22;;
17504;SDS011;8870;50.950;11.762;2022-08-03T14:56:34;3.25;;;0.30;;
17504;SDS011;8870;50.950;11.762;2022-08-03T15:01:39;0.13;;;0.10;;
17504;SDS011;8870;50.950;11.762;2022-08-03T15:07:04;0.75;;;0.30;;
17504;SDS011;8870;50.950;11.762;2022-08-03T15:12:12;4.28;;;0.22;;
17504;SDS011;8870;50.950;11.762;2022-08-03T15:22:33;1.58;;;0.28;;
17504;SDS011;8870;50.950;11.762;2022-08-03T15:27:40;0.95;;;0.25;;
17504;SDS011;8870;50.950;11.762;2022-08-03T15:33:05;0.98;;;0.30;;
17504;SDS011;8870;50.950;11.762;2022-08-03T15:38:10;0.65;;;0.20;;
17504;SDS011;8870;50.950;11.762;2022-08-03T15:43:17;0.20;;;0.20;;
17504;SDS011;8870;50.950;11.762;2022-08-03T15:48:22;0.55;;;0.20;;
17504;SDS011;8870;50.950;11.762;2022-08-03T15:53:27;0.75;;;0.20;;
17504;SDS011;8870;50.950;11.762;2022-08-03T15:58:34;0.28;;;0.20;;
17504;SDS011;8870;50.950;11.762;2022-08-03T16:04:00;1.85;;;0.30;;
17504;SDS011;8870;50.950;11.762;2022-08-03T16:09:05;3.08;;;0.30;;
17504;SDS011;8870;50.950;11.762;2022-08-03T16:14:34;3.53;;;0.45;;
17504;SDS011;8870;50.950;11.762;2022-08-03T16:19:52;3.03;;;0.30;;
17504;SDS011;8870;50.950;11.762;2022-08-03T16:24:58;5.35;;;0.40;;
17504;SDS011;8870;50.950;11.762;2022-08-03T16:30:16;2.78;;;0.50;;
17504;SDS011;8870;50.950;11.762;2022-08-03T16:35:21;1.73;;;0.30;;
17504;SDS011;8870;50.950;11.762;2022-08-03T16:40:26;1.33;;;0.32;;
17504;SDS011;8870;50.950;11.762;2022-08-03T16:45:34;2.17;;;0.30;;
17504;SDS011;8870;50.950;11.762;2022-08-03T16:50:39;5.05;;;0.50;;
17504;SDS011;8870;50.950;11.762;2022-08-03T16:55:44;4.03;;;0.30;;
17504;SDS011;8870;50.950;11.762;2022-08-03T17:00:57;2.88;;;0.40;;
17504;SDS011;8870;50.950;11.762;2022-08-03T17:06:25;3.25;;;0.45;;
17504;SDS011;8870;50.950;11.762;2022-08-03T17:11:36;1.20;;;0.20;;
17504;SDS011;8870;50.950;11.762;2022-08-03T17:16:50;3.95;;;0.30;;
17504;SDS011;8870;50.950;11.762;2022-08-03T17:21:59;2.92;;;0.47;;
17504;SDS011;8870;50.950;11.762;2022-08-03T17:27:16;1.48;;;0.35;;
17504;SDS011;8870;50.950;11.762;2022-08-03T17:32:45;2.10;;;0.30;;
17504;SDS011;8870;50.950;11.762;2022-08-03T17:37:58;1.67;;;0.30;;
17504;SDS011;8870;50.950;11.762;2022-08-03T17:43:08;2.65;;;0.30;;
17504;SDS011;8870;50.950;11.762;2022-08-03T17:48:35;4.25;;;0.30;;
17504;SDS011;8870;50.950;11.762;2022-08-03T17:53:44;2.97;;;0.30;;
17504;SDS011;8870;50.950;11.762;2022-08-03T17:58:57;2.20;;;0.38;;
17504;SDS011;8870;50.950;11.762;2022-08-03T18:04:11;1.50;;;0.40;;
17504;SDS011;8870;50.950;11.762;2022-08-03T18:09:44;2.70;;;0.40;;
17504;SDS011;8870;50.950;11.762;2022-08-03T18:15:07;2.55;;;0.40;;
17504;SDS011;8870;50.950;11.762;2022-08-03T18:20:25;3.17;;;0.32;;
17504;SDS011;8870;50.950;11.762;2022-08-03T18:25:39;4.00;;;0.38;;
17504;SDS011;8870;50.950;11.762;2022-08-03T18:30:58;3.58;;;0.40;;
17504;SDS011;8870;50.950;11.762;2022-08-03T18:36:09;2.72;;;0.38;;
17504;SDS011;8870;50.950;11.762;2022-08-03T18:41:18;3.92;;;0.40;;
17504;SDS011;8870;50.950;11.762;2022-08-03T18:46:37;2.25;;;0.38;;
17504;SDS011;8870;50.950;11.762;2022-08-03T18:51:55;2.08;;;0.45;;
17504;SDS011;8870;50.950;11.762;2022-08-03T18:57:13;2.13;;;0.40;;
17504;SDS011;8870;50.950;11.762;2022-08-03T19:02:36;4.80;;;0.50;;
17504;SDS011;8870;50.950;11.762;2022-08-03T19:08:00;2.80;;;0.60;;
17504;SDS011;8870;50.950;11.762;2022-08-03T19:13:17;1.60;;;0.45;;
17504;SDS011;8870;50.950;11.762;2022-08-03T19:18:37;2.35;;;0.63;;
17504;SDS011;8870;50.950;11.762;2022-08-03T19:23:47;0.90;;;0.40;;
17504;SDS011;8870;50.950;11.762;2022-08-03T19:28:57;6.22;;;0.65;;
17504;SDS011;8870;50.950;11.762;2022-08-03T19:34:02;7.75;;;0.70;;
17504;SDS011;8870;50.950;11.762;2022-08-03T19:39:11;3.58;;;0.70;;
17504;SDS011;8870;50.950;11.762;2022-08-03T19:44:18;3.28;;;0.60;;
17504;SDS011;8870;50.950;11.762;2022-08-03T19:49:31;1.05;;;0.50;;
17504;SDS011;8870;50.950;11.762;2022-08-03T19:55:03;2.47;;;0.57;;
17504;SDS011;8870;50.950;11.762;2022-08-03T20:00:13;0.57;;;0.57;;
17504;SDS011;8870;50.950;11.762;2022-08-03T20:05:27;1.05;;;0.40;;
17504;SDS011;8870;50.950;11.762;2022-08-03T20:10:55;4.43;;;0.65;;
17504;SDS011;8870;50.950;11.762;2022-08-03T20:16:02;2.67;;;0.55;;
17504;SDS011;8870;50.950;11.762;2022-08-03T20:21:12;2.47;;;0.50;;
17504;SDS011;8870;50.950;11.762;2022-08-03T20:26:22;3.05;;;0.60;;
17504;SDS011;8870;50.950;11.762;2022-08-03T20:31:33;2.08;;;0.50;;
17504;SDS011;8870;50.950;11.762;2022-08-03T20:36:40;1.48;;;0.60;;
17504;SDS011;8870;50.950;11.762;2022-08-03T20:41:49;4.25;;;0.70;;
17504;SDS011;8870;50.950;11.762;2022-08-03T20:46:56;1.48;;;0.50;;
17504;SDS011;8870;50.950;11.762;2022-08-03T20:52:03;5.88;;;0.80;;
17504;SDS011;8870;50.950;11.762;2022-08-03T20:57:22;1.30;;;0.55;;
17504;SDS011;8870;50.950;11.762;2022-08-03T21:02:33;3.10;;;0.80;;
17504;SDS011;8870;50.950;11.762;2022-08-03T21:07:42;5.20;;;0.70;;
17504;SDS011;8870;50.950;11.762;2022-08-03T21:13:11;1.00;;;0.60;;
17504;SDS011;8870;50.950;11.762;2022-08-03T21:18:42;1.38;;;0.60;;
17504;SDS011;8870;50.950;11.762;2022-08-03T21:23:53;1.85;;;0.52;;
17504;SDS011;8870;50.950;11.762;2022-08-03T21:29:02;0.60;;;0.50;;
17504;SDS011;8870;50.950;11.762;2022-08-03T21:34:12;3.17;;;0.65;;
17504;SDS011;8870;50.950;11.762;2022-08-03T21:39:19;3.20;;;0.60;;
17504;SDS011;8870;50.950;11.762;2022-08-03T21:44:26;3.05;;;0.80;;
17504;SDS011;8870;50.950;11.762;2022-08-03T21:49:31;3.50;;;0.80;;
17504;SDS011;8870;50.950;11.762;2022-08-03T21:55:03;1.90;;;0.60;;
17504;SDS011;8870;50.950;11.762;2022-08-03T22:00:21;5.07;;;0.70;;
17504;SDS011;8870;50.950;11.762;2022-08-03T22:05:27;1.77;;;0.80;;
17504;SDS011;8870;50.950;11.762;2022-08-03T22:10:44;2.78;;;0.70;;
17504;SDS011;8870;50.950;11.762;2022-08-03T22:15:53;2.25;;;0.60;;
17504;SDS011;8870;50.950;11.762;2022-08-03T22:20:58;2.25;;;0.50;;
17504;SDS011;8870;50.950;11.762;2022-08-03T22:26:04;0.80;;;0.50;;
17504;SDS011;8870;50.950;11.762;2022-08-03T22:31:14;0.88;;;0.60;;
17504;SDS011;8870;50.950;11.762;2022-08-03T22:36:39;3.38;;;0.70;;
17504;SDS011;8870;50.950;11.762;2022-08-03T22:41:45;2.28;;;0.80;;
17504;SDS011;8870;50.950;11.762;2022-08-03T22:46:53;3.03;;;0.60;;
17504;SDS011;8870;50.950;11.762;2022-08-03T22:51:59;2.33;;;0.70;;
17504;SDS011;8870;50.950;11.762;2022-08-03T22:57:06;4.88;;;0.80;;
17504;SDS011;8870;50.950;11.762;2022-08-03T23:02:15;2.78;;;0.60;;
17504;SDS011;8870;50.950;11.762;2022-08-03T23:07:26;2.47;;;0.70;;
17504;SDS011;8870;50.950;11.762;2022-08-03T23:12:35;1.13;;;0.60;;
17504;SDS011;8870;50.950;11.762;2022-08-03T23:17:45;1.83;;;0.70;;
17504;SDS011;8870;50.950;11.762;2022-08-03T23:22:58;2.75;;;0.75;;
17504;SDS011;8870;50.950;11.762;2022-08-03T23:28:05;2.88;;;0.70;;
17504;SDS011;8870;50.950;11.762;2022-08-03T23:33:16;4.65;;;0.70;;
17504;SDS011;8870;50.950;11.762;2022-08-03T23:38:22;0.70;;;0.70;;
17504;SDS011;8870;50.950;11.762;2022-08-03T23:43:29;0.77;;;0.60;;
17504;SDS011;8870;50.950;11.762;2022-08-03T23:48:57;2.55;;;0.63;;
17504;SDS011;8870;50.950;11.762;2022-08-03T23:54:05;1.83;;;0.60;;
17504;SDS011;8870;50.950;11.762;2022-08-03T23:59:18;4.13;;;0.70;;
